createdAt,value
2017-10-31T00:00:07.957Z,47
2017-10-31T00:01:10.120Z,46.9
2017-10-31T00:02:11.936Z,46.9
2017-10-31T00:03:13.735Z,47
2017-10-31T00:04:14.865Z,47.2
2017-10-31T00:05:16.336Z,47
2017-10-31T00:06:18.498Z,47.1
2017-10-31T00:07:19.976Z,47
2017-10-31T00:08:22.137Z,46.8
2017-10-31T00:09:23.955Z,46.8
2017-10-31T00:10:26.128Z,47
2017-10-31T00:11:27.936Z,47.1
2017-10-31T00:12:29.753Z,47
2017-10-31T00:13:31.572Z,47
2017-10-31T00:14:33.389Z,47
2017-10-31T00:15:35.203Z,46.9
2017-10-31T00:16:37.365Z,46.8
2017-10-31T00:17:39.161Z,47
2017-10-31T00:18:41.326Z,47.2
2017-10-31T00:19:43.123Z,47.1
2017-10-31T00:20:44.587Z,46.9
2017-10-31T00:21:46.751Z,47
2017-10-31T00:22:48.547Z,46.9
2017-10-31T00:23:50.366Z,47
2017-10-31T00:24:52.160Z,47
2017-10-31T00:25:53.956Z,46.9
2017-10-31T00:26:55.431Z,47.1
2017-10-31T00:27:56.883Z,46.9
2017-10-31T00:28:59.061Z,47.2
2017-10-31T00:30:01.212Z,47.1
2017-10-31T00:31:03.005Z,46.9
2017-10-31T00:32:04.115Z,47
2017-10-31T00:33:05.564Z,47
2017-10-31T00:34:07.725Z,47.3
2017-10-31T00:35:09.539Z,47.1
2017-10-31T00:36:11.356Z,46.9
2017-10-31T00:37:13.518Z,46.9
2017-10-31T00:38:14.986Z,46.9
2017-10-31T00:39:16.783Z,47
2017-10-31T00:40:18.256Z,46.9
2017-10-31T00:41:20.416Z,47
2017-10-31T00:42:22.574Z,47.1
2017-10-31T00:43:24.373Z,47.1
2017-10-31T00:44:26.193Z,47
2017-10-31T00:45:28.355Z,47
2017-10-31T00:46:30.516Z,46.8
2017-10-31T00:47:32.333Z,46.9
2017-10-31T00:48:34.153Z,47
2017-10-31T00:49:35.950Z,47
2017-10-31T00:50:37.420Z,47
2017-10-31T00:51:39.582Z,47.2
2017-10-31T00:52:41.744Z,47.2
2017-10-31T00:53:43.563Z,47.1
2017-10-31T00:54:45.383Z,46.8
2017-10-31T00:55:47.561Z,47.1
2017-10-31T00:56:48.653Z,46.8
2017-10-31T00:57:50.816Z,46.9
2017-10-31T00:58:52.981Z,47.1
2017-10-31T00:59:54.800Z,47.1
2017-10-31T01:00:56.260Z,46.8
2017-10-31T01:01:57.730Z,46.8
2017-10-31T01:02:59.886Z,46.9
2017-10-31T01:04:00.994Z,46.9
2017-10-31T01:05:03.156Z,46.7
2017-10-31T01:06:04.633Z,46.9
2017-10-31T01:07:06.451Z,46.7
2017-10-31T01:08:08.262Z,46.7
2017-10-31T01:09:10.422Z,46.7
2017-10-31T01:10:12.238Z,46.8
2017-10-31T01:11:14.035Z,46.8
2017-10-31T01:12:15.165Z,46.7
2017-10-31T01:13:16.963Z,46.6
2017-10-31T01:14:19.132Z,46.6
2017-10-31T01:15:20.947Z,46.7
2017-10-31T01:16:22.766Z,46.7
2017-10-31T01:17:24.582Z,46.7
2017-10-31T01:18:26.745Z,46.8
2017-10-31T01:19:28.199Z,46.9
2017-10-31T01:20:29.999Z,46.6
2017-10-31T01:21:31.806Z,46.6
2017-10-31T01:22:33.266Z,46.7
2017-10-31T01:23:35.448Z,46.8
2017-10-31T01:24:37.244Z,46.6
2017-10-31T01:25:39.407Z,46.8
2017-10-31T01:26:41.251Z,46.7
2017-10-31T01:27:43.098Z,46.7
2017-10-31T01:28:44.911Z,46.7
2017-10-31T01:29:47.075Z,46.6
2017-10-31T01:30:48.559Z,46.8
2017-10-31T01:31:50.012Z,46.6
2017-10-31T01:32:51.831Z,46.5
2017-10-31T01:33:53.319Z,46.6
2017-10-31T01:34:55.135Z,46.6
2017-10-31T01:35:57.300Z,46.6
2017-10-31T01:36:59.118Z,46.6
2017-10-31T01:38:01.289Z,46.6
2017-10-31T01:39:03.077Z,46.6
2017-10-31T01:40:05.242Z,46.4
2017-10-31T01:41:07.410Z,46.5
2017-10-31T01:42:08.854Z,46.7
2017-10-31T01:43:11.015Z,46.5
2017-10-31T01:44:12.469Z,46.5
2017-10-31T01:45:14.286Z,46.6
2017-10-31T01:46:16.449Z,46.8
2017-10-31T01:47:17.923Z,46.5
2017-10-31T01:48:19.744Z,46.8
2017-10-31T01:49:21.541Z,46.5
2017-10-31T01:50:23.358Z,46.7
2017-10-31T01:51:25.522Z,46.6
2017-10-31T01:52:26.648Z,46.6
2017-10-31T01:53:28.099Z,46.5
2017-10-31T01:54:30.275Z,46.4
2017-10-31T01:55:32.068Z,46.8
2017-10-31T01:56:33.887Z,46.8
2017-10-31T01:57:36.047Z,46.4
2017-10-31T01:58:37.848Z,46.7
2017-10-31T01:59:39.344Z,46.4
2017-10-31T02:00:41.509Z,46.5
2017-10-31T02:01:43.307Z,46.5
2017-10-31T02:02:45.103Z,46.4
2017-10-31T02:03:46.591Z,46.6
2017-10-31T02:04:48.052Z,46.8
2017-10-31T02:05:49.529Z,46.3
2017-10-31T02:06:51.698Z,46.3
2017-10-31T02:07:53.862Z,46.5
2017-10-31T02:08:55.705Z,46.3
2017-10-31T02:09:57.497Z,46.2
2017-10-31T02:10:59.338Z,46.4
2017-10-31T02:12:00.469Z,46.4
2017-10-31T02:13:02.632Z,46.3
2017-10-31T02:14:04.460Z,46.3
2017-10-31T02:15:05.899Z,46.2
2017-10-31T02:16:08.066Z,46.4
2017-10-31T02:17:09.879Z,46.2
2017-10-31T02:18:11.695Z,46.4
2017-10-31T02:19:13.173Z,46.6
2017-10-31T02:20:15.335Z,46.5
2017-10-31T02:21:16.789Z,46.3
2017-10-31T02:22:18.585Z,46.5
2017-10-31T02:23:20.403Z,46.2
2017-10-31T02:24:22.565Z,46.2
2017-10-31T02:25:24.386Z,46.3
2017-10-31T02:26:25.497Z,46.3
2017-10-31T02:27:27.661Z,46.3
2017-10-31T02:28:29.820Z,46.3
2017-10-31T02:29:31.296Z,46.5
2017-10-31T02:30:33.113Z,46.3
2017-10-31T02:31:35.290Z,46.3
2017-10-31T02:32:37.457Z,46.2
2017-10-31T02:33:38.934Z,46.4
2017-10-31T02:34:40.746Z,46.2
2017-10-31T02:35:42.564Z,46.2
2017-10-31T02:36:44.728Z,46.4
2017-10-31T02:37:46.890Z,46.3
2017-10-31T02:38:48.707Z,46.5
2017-10-31T02:39:50.526Z,46.6
2017-10-31T02:40:52.359Z,46.4
2017-10-31T02:41:54.526Z,46.1
2017-10-31T02:42:56.685Z,46.3
2017-10-31T02:43:58.500Z,46.1
2017-10-31T02:45:00.660Z,46.4
2017-10-31T02:46:02.482Z,46.2
2017-10-31T02:47:04.299Z,46.2
2017-10-31T02:48:06.461Z,46.2
2017-10-31T02:49:08.646Z,46.3
2017-10-31T02:50:10.797Z,46.4
2017-10-31T02:51:11.904Z,46.3
2017-10-31T02:52:14.066Z,46.6
2017-10-31T02:53:15.530Z,46.7
2017-10-31T02:54:16.993Z,46.4
2017-10-31T02:55:18.468Z,46.6
2017-10-31T02:56:20.286Z,46.2
2017-10-31T02:57:22.103Z,46
2017-10-31T02:58:23.906Z,46.4
2017-10-31T02:59:25.702Z,46.4
2017-10-31T03:00:27.517Z,46.4
2017-10-31T03:01:29.678Z,46.2
2017-10-31T03:02:31.478Z,46.3
2017-10-31T03:03:32.588Z,46.4
2017-10-31T03:04:34.748Z,46.2
2017-10-31T03:05:36.564Z,46.1
2017-10-31T03:06:38.383Z,46.3
2017-10-31T03:07:40.547Z,46.6
2017-10-31T03:08:42.709Z,46.6
2017-10-31T03:09:44.876Z,46.6
2017-10-31T03:10:46.698Z,46.4
2017-10-31T03:11:48.516Z,46.5
2017-10-31T03:12:50.337Z,46.4
2017-10-31T03:13:52.497Z,46.5
2017-10-31T03:14:54.293Z,46.4
2017-10-31T03:15:56.466Z,46.4
2017-10-31T03:16:58.644Z,46.4
2017-10-31T03:18:00.117Z,46.4
2017-10-31T03:19:01.937Z,46.6
2017-10-31T03:20:03.757Z,46.4
2017-10-31T03:21:05.917Z,46.3
2017-10-31T03:22:07.733Z,46.2
2017-10-31T03:23:09.551Z,46.4
2017-10-31T03:24:11.382Z,46.5
2017-10-31T03:25:13.558Z,46.3
2017-10-31T03:26:15.718Z,46
2017-10-31T03:27:17.192Z,46.4
2017-10-31T03:28:19.356Z,46.6
2017-10-31T03:29:21.518Z,46.5
2017-10-31T03:30:23.318Z,46.4
2017-10-31T03:31:25.136Z,46.2
2017-10-31T03:32:26.621Z,46.4
2017-10-31T03:33:28.773Z,46.3
2017-10-31T03:34:30.935Z,46.3
2017-10-31T03:35:33.095Z,46.4
2017-10-31T03:36:34.570Z,46.2
2017-10-31T03:37:36.025Z,46.1
2017-10-31T03:38:37.867Z,46.1
2017-10-31T03:39:39.318Z,46.2
2017-10-31T03:40:40.770Z,46
2017-10-31T03:41:42.592Z,46.1
2017-10-31T03:42:44.061Z,46.4
2017-10-31T03:43:45.514Z,46.2
2017-10-31T03:44:47.675Z,46.2
2017-10-31T03:45:49.494Z,46.1
2017-10-31T03:46:51.655Z,46.6
2017-10-31T03:47:53.130Z,46.3
2017-10-31T03:48:54.947Z,46.3
2017-10-31T03:49:57.108Z,46.2
2017-10-31T03:50:58.925Z,46.2
2017-10-31T03:52:00.745Z,46.4
2017-10-31T03:53:02.219Z,46.4
2017-10-31T03:54:04.055Z,46.4
2017-10-31T03:55:05.867Z,46.5
2017-10-31T03:56:08.033Z,46.1
2017-10-31T03:57:09.859Z,46.2
2017-10-31T03:58:12.020Z,46.2
2017-10-31T03:59:14.184Z,46.2
2017-10-31T04:00:15.658Z,46.3
2017-10-31T04:01:17.820Z,46.4
2017-10-31T04:02:19.646Z,46.3
2017-10-31T04:03:21.807Z,46.1
2017-10-31T04:04:23.968Z,46.2
2017-10-31T04:05:25.787Z,46.3
2017-10-31T04:06:27.948Z,46.2
2017-10-31T04:07:29.076Z,46.4
2017-10-31T04:08:31.247Z,46.2
2017-10-31T04:09:33.411Z,46.1
2017-10-31T04:10:34.522Z,46.1
2017-10-31T04:11:36.317Z,46
2017-10-31T04:12:38.133Z,46.1
2017-10-31T04:13:40.295Z,46.5
2017-10-31T04:14:41.745Z,46.2
2017-10-31T04:15:43.545Z,46.4
2017-10-31T04:16:45.706Z,46.1
2017-10-31T04:17:46.833Z,46.3
2017-10-31T04:18:48.994Z,46.1
2017-10-31T04:19:51.157Z,46.6
2017-10-31T04:20:53.327Z,46.4
2017-10-31T04:21:55.482Z,46.1
2017-10-31T04:22:57.645Z,46.2
2017-10-31T04:23:59.100Z,46.3
2017-10-31T04:25:00.917Z,46
2017-10-31T04:26:02.393Z,46.1
2017-10-31T04:27:03.526Z,46.4
2017-10-31T04:28:05.340Z,46.4
2017-10-31T04:29:06.814Z,46.1
2017-10-31T04:30:08.646Z,46.1
2017-10-31T04:31:10.108Z,46.3
2017-10-31T04:32:11.899Z,46
2017-10-31T04:33:14.061Z,46.3
2017-10-31T04:34:15.885Z,46.1
2017-10-31T04:35:17.681Z,46.1
2017-10-31T04:36:19.477Z,46.1
2017-10-31T04:37:21.645Z,46
2017-10-31T04:38:23.457Z,46.1
2017-10-31T04:39:24.935Z,46.2
2017-10-31T04:40:26.413Z,46
2017-10-31T04:41:28.577Z,46.1
2017-10-31T04:42:30.391Z,46.3
2017-10-31T04:43:32.209Z,46.1
2017-10-31T04:44:34.370Z,46.2
2017-10-31T04:45:36.192Z,46.1
2017-10-31T04:46:37.988Z,46.2
2017-10-31T04:47:39.807Z,46.1
2017-10-31T04:48:41.627Z,46.2
2017-10-31T04:49:43.789Z,46.1
2017-10-31T04:50:45.949Z,46.3
2017-10-31T04:51:47.765Z,46.4
2017-10-31T04:52:49.221Z,46.4
2017-10-31T04:53:50.689Z,46.2
2017-10-31T04:54:52.164Z,46.4
2017-10-31T04:55:53.968Z,46.1
2017-10-31T04:56:56.142Z,46.2
2017-10-31T04:57:57.967Z,46.3
2017-10-31T04:59:00.131Z,46.2
2017-10-31T05:00:02.303Z,46.2
2017-10-31T05:01:04.463Z,46.1
2017-10-31T05:02:06.281Z,46.2
2017-10-31T05:03:08.105Z,46.2
2017-10-31T05:04:09.898Z,46.3
2017-10-31T05:05:12.061Z,46.1
2017-10-31T05:06:13.880Z,46
2017-10-31T05:07:16.044Z,46.2
2017-10-31T05:08:17.517Z,46.1
2017-10-31T05:09:18.970Z,46.1
2017-10-31T05:10:21.134Z,46.1
2017-10-31T05:11:22.949Z,46.3
2017-10-31T05:12:25.109Z,46.2
2017-10-31T05:13:26.927Z,46
2017-10-31T05:14:28.723Z,46.1
2017-10-31T05:15:30.542Z,46
2017-10-31T05:16:32.360Z,46.2
2017-10-31T05:17:34.179Z,46
2017-10-31T05:18:35.632Z,46.2
2017-10-31T05:19:37.448Z,46.2
2017-10-31T05:20:39.611Z,46.1
2017-10-31T05:21:41.407Z,46
2017-10-31T05:22:42.888Z,46.3
2017-10-31T05:23:44.361Z,46
2017-10-31T05:24:45.471Z,46.1
2017-10-31T05:25:46.237Z,46.2
2017-10-31T05:26:48.050Z,46.3
2017-10-31T05:27:50.211Z,46.3
2017-10-31T05:28:51.661Z,46.3
2017-10-31T05:29:52.770Z,46.2
2017-10-31T05:30:54.591Z,46.2
2017-10-31T05:31:56.404Z,46
2017-10-31T05:32:58.203Z,46.2
2017-10-31T05:34:00.363Z,46.2
2017-10-31T05:35:02.180Z,46.3
2017-10-31T05:36:03.995Z,46.2
2017-10-31T05:37:05.791Z,46.4
2017-10-31T05:38:07.608Z,46.3
2017-10-31T05:39:09.773Z,46.6
2017-10-31T05:40:11.224Z,46.2
2017-10-31T05:41:13.387Z,46.2
2017-10-31T05:42:15.550Z,46.3
2017-10-31T05:43:16.662Z,46.2
2017-10-31T05:44:18.453Z,46
2017-10-31T05:45:20.248Z,46.2
2017-10-31T05:46:22.068Z,46.2
2017-10-31T05:47:23.887Z,46.2
2017-10-31T05:48:25.704Z,46.1
2017-10-31T05:49:27.518Z,46.2
2017-10-31T05:50:29.309Z,46.1
2017-10-31T05:51:30.764Z,46.4
2017-10-31T05:52:32.217Z,46.1
2017-10-31T05:53:34.407Z,46.1
2017-10-31T05:54:36.224Z,46
2017-10-31T05:55:38.388Z,46.3
2017-10-31T05:56:40.549Z,46.3
2017-10-31T05:57:42.005Z,46.2
2017-10-31T05:58:43.827Z,46.1
2017-10-31T05:59:45.992Z,46.1
2017-10-31T06:00:47.814Z,46.3
2017-10-31T06:01:48.925Z,46.3
2017-10-31T06:02:51.087Z,46.2
2017-10-31T06:03:52.560Z,46.1
2017-10-31T06:04:54.725Z,46
2017-10-31T06:05:56.543Z,46.3
2017-10-31T06:06:58.361Z,46.2
2017-10-31T06:08:00.523Z,46.1
2017-10-31T06:09:01.997Z,46.1
2017-10-31T06:10:03.456Z,46.2
2017-10-31T06:11:04.576Z,46.3
2017-10-31T06:12:06.732Z,46.5
2017-10-31T06:13:08.530Z,46.2
2017-10-31T06:14:09.292Z,46
2017-10-31T06:15:11.116Z,46.1
2017-10-31T06:16:12.960Z,46.1
2017-10-31T06:17:15.115Z,46.2
2017-10-31T06:18:17.282Z,46.2
2017-10-31T06:19:18.734Z,46
2017-10-31T06:20:20.899Z,46.1
2017-10-31T06:21:23.063Z,46
2017-10-31T06:22:24.513Z,46.2
2017-10-31T06:23:26.679Z,46
2017-10-31T06:24:28.497Z,46.1
2017-10-31T06:25:29.610Z,46.4
2017-10-31T06:26:31.086Z,46
2017-10-31T06:27:33.249Z,46.2
2017-10-31T06:28:34.726Z,46.3
2017-10-31T06:29:36.545Z,46.6
2017-10-31T06:30:37.667Z,46.3
2017-10-31T06:31:39.828Z,46
2017-10-31T06:32:41.283Z,46.1
2017-10-31T06:33:43.100Z,46.1
2017-10-31T06:34:44.897Z,46
2017-10-31T06:35:46.725Z,46.1
2017-10-31T06:36:48.173Z,46.2
2017-10-31T06:37:50.346Z,46.1
2017-10-31T06:38:52.163Z,46.1
2017-10-31T06:39:53.275Z,46.1
2017-10-31T06:40:55.075Z,46.1
2017-10-31T06:41:56.192Z,46.1
2017-10-31T06:42:58.357Z,46.1
2017-10-31T06:44:00.181Z,46.3
2017-10-31T06:45:01.290Z,46.2
2017-10-31T06:46:02.420Z,46.4
2017-10-31T06:47:04.218Z,46
2017-10-31T06:48:05.670Z,46
2017-10-31T06:49:07.833Z,46.2
2017-10-31T06:50:09.649Z,46
2017-10-31T06:51:10.778Z,46.3
2017-10-31T06:52:12.603Z,46.2
2017-10-31T06:53:14.424Z,46.1
2017-10-31T06:54:16.589Z,46.2
2017-10-31T06:55:18.410Z,46.1
2017-10-31T06:56:20.576Z,46
2017-10-31T06:57:22.052Z,46.2
2017-10-31T06:58:23.872Z,46
2017-10-31T06:59:25.689Z,46.1
2017-10-31T07:00:27.167Z,46.2
2017-10-31T07:01:29.328Z,46.1
2017-10-31T07:02:31.495Z,46.1
2017-10-31T07:03:33.660Z,46.1
2017-10-31T07:04:35.459Z,46
2017-10-31T07:05:36.930Z,46.2
2017-10-31T07:06:39.097Z,46.1
2017-10-31T07:07:40.918Z,46.2
2017-10-31T07:08:43.078Z,46.2
2017-10-31T07:09:44.895Z,45.9
2017-10-31T07:10:46.715Z,46
2017-10-31T07:11:48.189Z,46.1
2017-10-31T07:12:50.017Z,46.1
2017-10-31T07:13:51.834Z,46
2017-10-31T07:14:53.666Z,45.9
2017-10-31T07:15:55.480Z,46.1
2017-10-31T07:16:56.598Z,45.9
2017-10-31T07:17:58.048Z,46.2
2017-10-31T07:19:00.217Z,46.2
2017-10-31T07:20:01.670Z,45.9
2017-10-31T07:21:03.835Z,45.8
2017-10-31T07:22:06.002Z,45.9
2017-10-31T07:23:08.163Z,46
2017-10-31T07:24:09.636Z,45.9
2017-10-31T07:25:11.801Z,46
2017-10-31T07:26:12.932Z,45.9
2017-10-31T07:27:14.384Z,46
2017-10-31T07:28:15.859Z,45.9
2017-10-31T07:29:17.684Z,45.9
2017-10-31T07:30:19.482Z,46.1
2017-10-31T07:31:21.294Z,46.1
2017-10-31T07:32:22.426Z,46.1
2017-10-31T07:33:23.896Z,45.9
2017-10-31T07:34:26.060Z,45.9
2017-10-31T07:35:27.875Z,45.8
2017-10-31T07:36:30.046Z,45.8
2017-10-31T07:37:31.519Z,45.9
2017-10-31T07:38:33.341Z,45.8
2017-10-31T07:39:35.155Z,45.8
2017-10-31T07:40:37.316Z,45.9
2017-10-31T07:41:38.790Z,45.9
2017-10-31T07:42:40.607Z,45.9
2017-10-31T07:43:42.777Z,46
2017-10-31T07:44:44.946Z,45.9
2017-10-31T07:45:47.098Z,45.8
2017-10-31T07:46:48.560Z,45.8
2017-10-31T07:47:50.033Z,46
2017-10-31T07:48:52.194Z,45.9
2017-10-31T07:49:53.668Z,45.8
2017-10-31T07:50:55.488Z,45.8
2017-10-31T07:51:56.946Z,46
2017-10-31T07:52:58.416Z,45.9
2017-10-31T07:54:00.281Z,45.8
2017-10-31T07:55:02.097Z,45.8
2017-10-31T07:56:03.919Z,46
2017-10-31T07:57:05.745Z,45.8
2017-10-31T07:58:07.905Z,45.9
2017-10-31T07:59:10.071Z,45.9
2017-10-31T08:00:11.869Z,45.9
2017-10-31T08:01:13.670Z,45.8
2017-10-31T08:02:15.834Z,45.9
2017-10-31T08:03:17.655Z,45.8
2017-10-31T08:04:19.116Z,45.8
2017-10-31T08:05:20.963Z,45.8
2017-10-31T08:06:22.758Z,46.1
2017-10-31T08:07:24.923Z,46.2
2017-10-31T08:08:27.082Z,45.9
2017-10-31T08:09:29.246Z,46.2
2017-10-31T08:10:31.068Z,46.1
2017-10-31T08:11:32.541Z,45.9
2017-10-31T08:12:34.362Z,46
2017-10-31T08:13:35.825Z,45.9
2017-10-31T08:14:37.697Z,45.9
2017-10-31T08:15:39.152Z,45.9
2017-10-31T08:16:41.318Z,45.8
2017-10-31T08:17:43.482Z,46
2017-10-31T08:18:45.649Z,45.9
2017-10-31T08:19:47.103Z,45.8
2017-10-31T08:20:48.556Z,45.8
2017-10-31T08:21:49.685Z,46
2017-10-31T08:22:51.508Z,46
2017-10-31T08:23:53.334Z,46
2017-10-31T08:24:55.158Z,46.2
2017-10-31T08:25:56.608Z,45.7
2017-10-31T08:26:58.433Z,46
2017-10-31T08:27:59.890Z,46
2017-10-31T08:29:01.688Z,45.8
2017-10-31T08:30:03.143Z,45.9
2017-10-31T08:31:04.963Z,45.8
2017-10-31T08:32:07.130Z,45.8
2017-10-31T08:33:08.951Z,45.9
2017-10-31T08:34:11.117Z,45.8
2017-10-31T08:35:12.565Z,45.7
2017-10-31T08:36:13.676Z,45.8
2017-10-31T08:37:15.497Z,46
2017-10-31T08:38:16.950Z,45.8
2017-10-31T08:39:18.747Z,45.8
2017-10-31T08:40:20.927Z,45.8
2017-10-31T08:41:22.385Z,45.8
2017-10-31T08:42:23.846Z,45.8
2017-10-31T08:43:25.320Z,45.8
2017-10-31T08:44:27.139Z,46
2017-10-31T08:45:28.970Z,46
2017-10-31T08:46:30.446Z,46
2017-10-31T08:47:32.250Z,45.8
2017-10-31T08:48:34.409Z,46
2017-10-31T08:49:36.569Z,46
2017-10-31T08:50:38.735Z,46
2017-10-31T08:51:40.911Z,45.9
2017-10-31T08:52:42.732Z,45.8
2017-10-31T08:53:44.545Z,46
2017-10-31T08:54:46.365Z,45.8
2017-10-31T08:55:48.186Z,45.9
2017-10-31T08:56:49.645Z,45.9
2017-10-31T08:57:51.464Z,45.8
2017-10-31T08:58:53.271Z,45.7
2017-10-31T08:59:54.749Z,45.7
2017-10-31T09:00:56.204Z,45.8
2017-10-31T09:01:58.368Z,45.9
2017-10-31T09:03:00.184Z,45.8
2017-10-31T09:04:02.012Z,45.7
2017-10-31T09:05:03.823Z,45.8
2017-10-31T09:06:04.952Z,46
2017-10-31T09:07:06.404Z,45.9
2017-10-31T09:08:08.203Z,45.8
2017-10-31T09:09:10.006Z,45.8
2017-10-31T09:10:11.826Z,45.8
2017-10-31T09:11:13.291Z,45.7
2017-10-31T09:12:15.092Z,46
2017-10-31T09:13:16.226Z,45.8
2017-10-31T09:14:17.678Z,45.8
2017-10-31T09:15:19.497Z,45.7
2017-10-31T09:16:21.295Z,45.7
2017-10-31T09:17:23.113Z,45.9
2017-10-31T09:18:24.589Z,45.8
2017-10-31T09:19:26.755Z,45.8
2017-10-31T09:20:28.208Z,45.7
2017-10-31T09:21:30.026Z,45.8
2017-10-31T09:22:31.483Z,46
2017-10-31T09:23:32.941Z,45.8
2017-10-31T09:24:35.103Z,45.8
2017-10-31T09:25:36.561Z,45.8
2017-10-31T09:26:38.384Z,46
2017-10-31T09:27:39.868Z,45.8
2017-10-31T09:28:41.659Z,45.8
2017-10-31T09:29:43.113Z,45.8
2017-10-31T09:30:44.930Z,46
2017-10-31T09:31:46.405Z,45.8
2017-10-31T09:32:47.878Z,45.9
2017-10-31T09:33:49.696Z,45.7
2017-10-31T09:34:51.866Z,45.8
2017-10-31T09:35:53.679Z,45.9
2017-10-31T09:36:55.132Z,45.8
2017-10-31T09:37:56.587Z,45.7
2017-10-31T09:38:58.037Z,45.8
2017-10-31T09:39:59.524Z,45.8
2017-10-31T09:41:01.340Z,45.7
2017-10-31T09:42:03.166Z,45.8
2017-10-31T09:43:04.994Z,45.9
2017-10-31T09:44:06.797Z,45.8
2017-10-31T09:45:08.983Z,45.8
2017-10-31T09:46:11.146Z,45.8
2017-10-31T09:47:13.312Z,45.8
2017-10-31T09:48:15.148Z,45.5
2017-10-31T09:49:16.959Z,45.8
2017-10-31T09:50:19.151Z,45.3
2017-10-31T09:51:20.970Z,45.7
2017-10-31T09:52:22.766Z,45.8
2017-10-31T09:53:24.590Z,45.8
2017-10-31T09:54:26.044Z,45.8
2017-10-31T09:55:27.864Z,45.9
2017-10-31T09:56:29.321Z,45.8
2017-10-31T09:57:30.798Z,45.9
2017-10-31T09:58:32.274Z,45.8
2017-10-31T09:59:34.092Z,45.8
2017-10-31T10:00:35.566Z,45.9
2017-10-31T10:01:37.063Z,45.8
2017-10-31T10:02:38.866Z,45.6
2017-10-31T10:03:41.032Z,45.8
2017-10-31T10:04:42.487Z,45.8
2017-10-31T10:05:44.658Z,45.3
2017-10-31T10:06:46.487Z,45.8
2017-10-31T10:07:47.958Z,45.7
2017-10-31T10:08:49.779Z,45.6
2017-10-31T10:09:51.581Z,45.9
2017-10-31T10:10:53.745Z,45.9
2017-10-31T10:11:55.577Z,45.9
2017-10-31T10:12:57.397Z,45.5
2017-10-31T10:13:59.560Z,45.8
2017-10-31T10:15:01.432Z,45.9
2017-10-31T10:16:02.889Z,45.9
2017-10-31T10:17:05.052Z,45.8
2017-10-31T10:18:06.503Z,45.9
2017-10-31T10:19:08.666Z,45.8
2017-10-31T10:20:10.487Z,45.9
2017-10-31T10:21:12.664Z,45.7
2017-10-31T10:22:14.485Z,46
2017-10-31T10:23:16.649Z,45.9
2017-10-31T10:24:18.476Z,45.8
2017-10-31T10:25:20.293Z,45.9
2017-10-31T10:26:22.089Z,45.9
2017-10-31T10:27:23.907Z,45.8
2017-10-31T10:28:26.070Z,45.6
2017-10-31T10:29:27.888Z,45.9
2017-10-31T10:30:29.690Z,45.8
2017-10-31T10:31:31.498Z,45.8
2017-10-31T10:32:33.652Z,45.8
2017-10-31T10:33:35.845Z,45.9
2017-10-31T10:34:37.330Z,45.3
2017-10-31T10:35:38.458Z,45.8
2017-10-31T10:36:39.966Z,45.8
2017-10-31T10:37:41.424Z,45.8
2017-10-31T10:38:42.530Z,45.8
2017-10-31T10:39:44.347Z,45.5
2017-10-31T10:40:46.171Z,45.8
2017-10-31T10:41:47.976Z,45.8
2017-10-31T10:42:49.448Z,45.7
2017-10-31T10:43:51.266Z,45.7
2017-10-31T10:44:53.074Z,45.8
2017-10-31T10:45:54.874Z,46
2017-10-31T10:46:57.035Z,45.9
2017-10-31T10:47:59.204Z,45.7
2017-10-31T10:49:00.995Z,45.7
2017-10-31T10:50:02.452Z,45.8
2017-10-31T10:51:03.928Z,45.8
2017-10-31T10:52:06.097Z,45.7
2017-10-31T10:53:07.914Z,45.8
2017-10-31T10:54:09.369Z,45.4
2017-10-31T10:55:11.168Z,45.3
2017-10-31T10:56:13.330Z,45.3
2017-10-31T10:57:15.137Z,46.1
2017-10-31T10:58:17.296Z,45.4
2017-10-31T10:59:19.119Z,45.8
2017-10-31T11:00:20.583Z,46
2017-10-31T11:01:22.403Z,45.7
2017-10-31T11:02:23.512Z,45.8
2017-10-31T11:03:25.331Z,45.8
2017-10-31T11:04:27.155Z,45.8
2017-10-31T11:05:28.972Z,45.8
2017-10-31T11:06:30.429Z,45.8
2017-10-31T11:07:32.249Z,46
2017-10-31T11:08:34.076Z,45.9
2017-10-31T11:09:35.874Z,45.7
2017-10-31T11:10:37.675Z,45.8
2017-10-31T11:11:38.784Z,45.6
2017-10-31T11:12:40.962Z,45.8
2017-10-31T11:13:42.441Z,45.5
2017-10-31T11:14:44.604Z,45.8
2017-10-31T11:15:46.431Z,45.5
2017-10-31T11:16:48.587Z,45.9
2017-10-31T11:17:50.751Z,45.9
2017-10-31T11:18:52.576Z,45.8
2017-10-31T11:19:54.377Z,45.9
2017-10-31T11:20:56.177Z,46.1
2017-10-31T11:21:58.014Z,45.9
2017-10-31T11:23:00.165Z,45.9
2017-10-31T11:24:01.974Z,45.3
2017-10-31T11:25:04.132Z,45.9
2017-10-31T11:26:05.608Z,45.6
2017-10-31T11:27:07.772Z,45.9
2017-10-31T11:28:09.936Z,45.5
2017-10-31T11:29:12.100Z,45.5
2017-10-31T11:30:14.275Z,45.6
2017-10-31T11:31:16.096Z,45.7
2017-10-31T11:32:17.577Z,45.6
2017-10-31T11:33:19.032Z,45.7
2017-10-31T11:34:20.854Z,45.4
2017-10-31T11:35:22.678Z,45.3
2017-10-31T11:36:24.497Z,45.5
2017-10-31T11:37:26.299Z,45.5
2017-10-31T11:38:28.119Z,45.3
2017-10-31T11:39:29.942Z,45.3
2017-10-31T11:40:31.741Z,45.4
2017-10-31T11:41:33.904Z,45.6
2017-10-31T11:42:35.723Z,45.4
2017-10-31T11:43:37.891Z,45.4
2017-10-31T11:44:39.343Z,45.7
2017-10-31T11:45:41.509Z,45.4
2017-10-31T11:46:42.964Z,45.4
2017-10-31T11:47:44.762Z,45.4
2017-10-31T11:48:45.892Z,45.4
2017-10-31T11:49:47.349Z,45.4
2017-10-31T11:50:49.517Z,45.4
2017-10-31T11:51:51.337Z,45.5
2017-10-31T11:52:53.159Z,45.4
2017-10-31T11:53:54.956Z,45.5
2017-10-31T11:54:56.409Z,45.5
2017-10-31T11:55:58.575Z,45.4
2017-10-31T11:57:00.398Z,45.6
2017-10-31T11:58:02.557Z,45.6
2017-10-31T11:59:04.733Z,45.2
2017-10-31T12:00:06.532Z,45.2
2017-10-31T12:01:08.006Z,45.5
2017-10-31T12:02:10.171Z,45.6
2017-10-31T12:03:11.991Z,45.4
2017-10-31T12:04:13.470Z,45.5
2017-10-31T12:05:14.241Z,45.5
2017-10-31T12:06:16.066Z,45.5
2017-10-31T12:07:17.525Z,45.3
2017-10-31T12:08:19.686Z,45.5
2017-10-31T12:09:21.512Z,45.4
2017-10-31T12:10:23.672Z,45.6
2017-10-31T12:11:25.157Z,45.5
2017-10-31T12:12:26.265Z,45.5
2017-10-31T12:13:28.085Z,45.4
2017-10-31T12:14:30.251Z,45.4
2017-10-31T12:15:31.730Z,45.5
2017-10-31T12:16:33.527Z,45.6
2017-10-31T12:17:35.349Z,45.4
2017-10-31T12:18:37.167Z,45.3
2017-10-31T12:19:38.296Z,45.1
2017-10-31T12:20:39.749Z,45.2
2017-10-31T12:21:41.549Z,45.2
2017-10-31T12:22:43.348Z,45.7
2017-10-31T12:23:45.169Z,45.6
2017-10-31T12:24:47.333Z,45.4
2017-10-31T12:25:48.814Z,45.1
2017-10-31T12:26:50.974Z,45.1
2017-10-31T12:27:52.792Z,45.4
2017-10-31T12:28:54.956Z,45.1
2017-10-31T12:29:56.423Z,45.1
2017-10-31T12:30:57.871Z,45.4
2017-10-31T12:32:00.040Z,45.1
2017-10-31T12:33:02.204Z,45.2
2017-10-31T12:34:04.006Z,45.4
2017-10-31T12:35:05.484Z,45.6
2017-10-31T12:36:07.648Z,45.4
2017-10-31T12:37:09.124Z,45.4
2017-10-31T12:38:10.944Z,45.2
2017-10-31T12:39:12.754Z,45.4
2017-10-31T12:40:14.916Z,45.5
2017-10-31T12:41:17.083Z,45.5
2017-10-31T12:42:19.246Z,45.6
2017-10-31T12:43:20.384Z,45.6
2017-10-31T12:44:21.840Z,45
2017-10-31T12:45:23.657Z,45.4
2017-10-31T12:46:25.822Z,45.2
2017-10-31T12:47:27.276Z,45
2017-10-31T12:48:29.094Z,45.5
2017-10-31T12:49:31.255Z,45.3
2017-10-31T12:50:33.422Z,45.4
2017-10-31T12:51:35.588Z,45
2017-10-31T12:52:37.388Z,45.6
2017-10-31T12:53:39.188Z,45.6
2017-10-31T12:54:40.643Z,45.3
2017-10-31T12:55:42.444Z,45.5
2017-10-31T12:56:44.266Z,45.4
2017-10-31T12:57:45.743Z,45
2017-10-31T12:58:47.908Z,45.4
2017-10-31T12:59:49.710Z,45.7
2017-10-31T13:00:51.193Z,45.4
2017-10-31T13:01:52.984Z,45.6
2017-10-31T13:02:54.804Z,45.1
2017-10-31T13:03:56.284Z,45
2017-10-31T13:04:58.446Z,45.5
2017-10-31T13:05:59.923Z,45.3
2017-10-31T13:07:02.141Z,45.1
2017-10-31T13:08:03.966Z,45
2017-10-31T13:09:05.786Z,45
2017-10-31T13:10:07.952Z,45.1
2017-10-31T13:11:09.063Z,45.2
2017-10-31T13:12:11.231Z,45.6
2017-10-31T13:13:13.394Z,45.6
2017-10-31T13:14:14.869Z,45.5
2017-10-31T13:15:16.344Z,45.4
2017-10-31T13:16:18.512Z,45.3
2017-10-31T13:17:19.633Z,45.4
2017-10-31T13:18:21.088Z,45.5
2017-10-31T13:19:22.918Z,45.5
2017-10-31T13:20:24.739Z,45.4
2017-10-31T13:21:26.904Z,45.5
2017-10-31T13:22:28.482Z,45.4
2017-10-31T13:23:30.649Z,45.4
2017-10-31T13:24:32.813Z,45.4
2017-10-31T13:25:34.270Z,45.4
2017-10-31T13:26:35.745Z,45.3
2017-10-31T13:27:37.566Z,45.3
2017-10-31T13:28:39.040Z,45.5
2017-10-31T13:29:41.205Z,45.3
2017-10-31T13:30:42.661Z,45.6
2017-10-31T13:31:44.136Z,45.6
2017-10-31T13:32:45.616Z,45.3
2017-10-31T13:33:47.090Z,45.3
2017-10-31T13:34:49.253Z,45.4
2017-10-31T13:35:51.434Z,45.4
2017-10-31T13:36:52.545Z,45.4
2017-10-31T13:37:54.807Z,45.5
2017-10-31T13:38:56.974Z,45.5
2017-10-31T13:39:58.796Z,45.5
2017-10-31T13:41:00.600Z,45.3
2017-10-31T13:42:02.769Z,45.3
2017-10-31T13:43:04.221Z,45.7
2017-10-31T13:44:06.040Z,45.5
2017-10-31T13:45:07.867Z,45.4
2017-10-31T13:46:09.318Z,45.3
2017-10-31T13:47:11.137Z,45.4
2017-10-31T13:48:12.590Z,45.3